createdAt,value
2023-02-16T00:01:35.986Z,11.10
2023-02-16T00:04:02.471Z,11.10
2023-02-16T00:06:32.415Z,11.10
2023-02-16T00:08:58.880Z,11.10
2023-02-16T00:11:25.376Z,11.20
2023-02-16T00:13:51.850Z,11.20
2023-02-16T00:16:18.422Z,11.20
2023-02-16T00:18:44.956Z,11.10
2023-02-16T00:21:11.444Z,11.10
2023-02-16T00:23:38.043Z,11.10
2023-02-16T00:26:04.518Z,11.10
2023-02-16T00:28:30.994Z,11.10
2023-02-16T00:30:57.573Z,11.10
2023-02-16T00:33:24.082Z,11.10
2023-02-16T00:35:50.561Z,11.10
2023-02-16T00:38:17.019Z,11.10
2023-02-16T00:40:43.532Z,11.10
2023-02-16T00:43:14.530Z,11.10
2023-02-16T00:45:41.039Z,11.10
2023-02-16T00:48:07.543Z,11.10
2023-02-16T00:50:34.025Z,11.10
2023-02-16T00:53:00.518Z,11.10
2023-02-16T00:55:27.024Z,11.10
2023-02-16T00:57:53.544Z,11.10
2023-02-16T01:00:20.050Z,11.10
2023-02-16T01:02:46.531Z,11.10
2023-02-16T01:05:13.064Z,11.10
2023-02-16T01:07:39.539Z,11.10
2023-02-16T01:10:06.033Z,11.10
2023-02-16T01:12:32.486Z,11.10
2023-02-16T01:14:59.028Z,11.10
2023-02-16T01:17:25.520Z,11.10
2023-02-16T01:19:51.998Z,11.10
2023-02-16T01:22:18.457Z,11.10
2023-02-16T01:24:44.931Z,11.10
2023-02-16T01:27:11.413Z,11.10
2023-02-16T01:29:37.875Z,11.10
2023-02-16T01:32:04.447Z,11.10
2023-02-16T01:34:31.011Z,11.10
2023-02-16T01:36:57.483Z,11.10
2023-02-16T01:39:26.429Z,11.10
2023-02-16T01:41:52.914Z,11.10
2023-02-16T01:44:19.397Z,11.20
2023-02-16T01:46:45.905Z,11.10
2023-02-16T01:49:12.432Z,11.10
2023-02-16T01:51:38.902Z,11.10
2023-02-16T01:54:05.413Z,11.10
2023-02-16T01:56:31.875Z,11.10
2023-02-16T01:58:58.368Z,11.10
2023-02-16T02:01:24.894Z,11.10
2023-02-16T02:03:51.393Z,11.20
2023-02-16T02:06:17.866Z,11.10
2023-02-16T02:08:44.397Z,11.10
2023-02-16T02:11:10.896Z,11.10
2023-02-16T02:13:37.375Z,11.10
2023-02-16T02:16:03.888Z,11.10
2023-02-16T02:18:30.392Z,11.10
2023-02-16T02:20:56.974Z,11.10
2023-02-16T02:23:23.443Z,11.10
2023-02-16T02:25:49.944Z,11.10
2023-02-16T02:28:16.426Z,11.10
2023-02-16T02:30:42.925Z,11.10
2023-02-16T02:33:09.416Z,11.10
2023-02-16T02:35:35.879Z,11.10
2023-02-16T02:38:02.371Z,11.10
2023-02-16T02:40:28.836Z,11.10
2023-02-16T02:42:55.305Z,11.10
2023-02-16T02:45:21.786Z,11.10
2023-02-16T02:47:48.259Z,11.10
2023-02-16T02:50:14.748Z,11.10
2023-02-16T02:52:41.235Z,11.10
2023-02-16T02:55:07.730Z,11.10
2023-02-16T02:57:34.204Z,11.00
2023-02-16T03:00:00.714Z,11.00
2023-02-16T03:02:32.548Z,11.00
2023-02-16T03:04:59.014Z,11.10
2023-02-16T03:07:25.512Z,11.00
2023-02-16T03:09:51.996Z,11.10
2023-02-16T03:12:18.477Z,11.10
2023-02-16T03:14:44.966Z,11.10
2023-02-16T03:17:11.448Z,11.10
2023-02-16T03:19:37.918Z,11.10
2023-02-16T03:22:04.399Z,11.10
2023-02-16T03:24:30.884Z,11.10
2023-02-16T03:26:57.377Z,11.00
2023-02-16T03:29:23.847Z,11.00
2023-02-16T03:31:50.382Z,11.00
2023-02-16T03:34:16.965Z,11.00
2023-02-16T03:36:43.492Z,11.00
2023-02-16T03:39:09.968Z,11.10
2023-02-16T03:41:36.472Z,11.00
2023-02-16T03:44:02.984Z,11.00
2023-02-16T03:46:29.484Z,11.00
2023-02-16T03:48:55.974Z,11.10
2023-02-16T03:51:22.471Z,11.00
2023-02-16T03:53:48.927Z,11.10
2023-02-16T03:56:15.402Z,11.00
2023-02-16T03:58:41.881Z,11.00
2023-02-16T04:01:08.369Z,11.00
2023-02-16T04:03:34.870Z,11.00
2023-02-16T04:06:01.351Z,11.00
2023-02-16T04:08:27.831Z,11.00
2023-02-16T04:10:54.338Z,11.00
2023-02-16T04:13:20.805Z,11.00
2023-02-16T04:15:47.297Z,11.00
2023-02-16T04:18:14.599Z,11.00
2023-02-16T04:20:41.064Z,11.00
2023-02-16T04:23:07.548Z,11.00
2023-02-16T04:25:34.007Z,11.00
2023-02-16T04:28:00.483Z,11.00
2023-02-16T04:30:27.011Z,11.00
2023-02-16T04:32:53.522Z,11.00
2023-02-16T04:35:20.019Z,11.00
2023-02-16T04:37:46.543Z,11.00
2023-02-16T04:40:13.032Z,11.00
2023-02-16T04:42:39.538Z,11.00
2023-02-16T04:45:08.592Z,11.00
2023-02-16T04:47:35.231Z,11.00
2023-02-16T04:50:01.689Z,11.00
2023-02-16T04:52:28.177Z,11.00
2023-02-16T04:54:54.639Z,11.00
2023-02-16T04:57:21.136Z,11.00
2023-02-16T04:59:47.602Z,11.00
2023-02-16T05:02:14.063Z,11.00
2023-02-16T05:04:40.651Z,11.00
2023-02-16T05:07:07.147Z,11.00
2023-02-16T05:09:38.660Z,10.90
2023-02-16T05:12:05.124Z,11.00
2023-02-16T05:14:31.586Z,11.00
2023-02-16T05:16:58.070Z,11.00
2023-02-16T05:19:24.577Z,11.00
2023-02-16T05:21:51.046Z,11.00
2023-02-16T05:24:17.507Z,11.00
2023-02-16T05:26:43.974Z,11.00
2023-02-16T05:29:10.460Z,11.00
2023-02-16T05:31:36.997Z,11.00
2023-02-16T05:34:03.548Z,11.00
2023-02-16T05:36:30.025Z,11.00
2023-02-16T05:38:56.512Z,11.00
2023-02-16T05:41:22.991Z,11.00
2023-02-16T05:43:49.478Z,11.00
2023-02-16T05:46:16.085Z,11.00
2023-02-16T05:48:42.596Z,11.00
2023-02-16T05:51:09.061Z,11.00
2023-02-16T05:53:35.568Z,11.00
2023-02-16T05:56:02.030Z,11.00
2023-02-16T05:58:28.525Z,11.00
2023-02-16T06:00:55.011Z,11.00
2023-02-16T06:03:21.534Z,11.00
2023-02-16T06:05:48.055Z,11.00
2023-02-16T06:08:14.532Z,11.00
2023-02-16T06:10:44.715Z,11.00
2023-02-16T06:13:11.187Z,11.00
2023-02-16T06:15:37.702Z,11.00
2023-02-16T06:18:04.213Z,11.00
2023-02-16T06:20:30.702Z,11.00
2023-02-16T06:22:57.177Z,10.90
2023-02-16T06:25:23.647Z,10.90
2023-02-16T06:27:50.154Z,10.90
2023-02-16T06:30:16.683Z,10.90
2023-02-16T06:32:43.220Z,11.00
2023-02-16T06:35:09.779Z,10.90
2023-02-16T06:37:36.245Z,10.90
2023-02-16T06:40:02.740Z,10.90
2023-02-16T06:42:29.214Z,10.80
2023-02-16T06:44:55.705Z,10.90
2023-02-16T06:47:22.175Z,10.90
2023-02-16T06:49:48.689Z,10.90
2023-02-16T06:52:15.345Z,10.90
2023-02-16T06:54:41.839Z,10.90
2023-02-16T06:57:08.288Z,10.90
2023-02-16T06:59:34.790Z,10.90
2023-02-16T07:02:01.283Z,10.80
2023-02-16T07:04:28.898Z,10.80
2023-02-16T07:06:55.405Z,10.80
2023-02-16T07:09:21.940Z,10.70
2023-02-16T07:11:48.413Z,10.70
2023-02-16T07:14:14.927Z,10.60
2023-02-16T07:16:41.481Z,10.60
2023-02-16T07:19:07.974Z,10.60
2023-02-16T07:21:38.758Z,10.60
2023-02-16T07:24:05.230Z,10.70
2023-02-16T07:26:31.720Z,10.60
2023-02-16T07:28:58.220Z,10.70
2023-02-16T07:31:24.801Z,10.70
2023-02-16T07:33:51.297Z,10.70
2023-02-16T07:36:17.769Z,10.80
2023-02-16T07:38:44.769Z,10.80
2023-02-16T07:41:14.781Z,10.80
2023-02-16T07:43:41.266Z,10.80
2023-02-16T07:46:07.795Z,10.80
2023-02-16T07:48:34.362Z,10.80
2023-02-16T07:51:00.860Z,10.70
2023-02-16T07:53:27.351Z,10.70
2023-02-16T07:55:53.874Z,10.70
2023-02-16T07:58:20.381Z,10.70
2023-02-16T08:00:46.884Z,10.70
2023-02-16T08:03:13.475Z,10.70
2023-02-16T08:05:40.072Z,10.70
2023-02-16T08:08:06.538Z,10.70
2023-02-16T08:10:33.054Z,10.70
2023-02-16T08:12:59.526Z,10.70
2023-02-16T08:15:26.017Z,10.70
2023-02-16T08:17:52.491Z,10.80
2023-02-16T08:20:18.999Z,10.80
2023-02-16T08:22:45.464Z,10.80
2023-02-16T08:25:11.975Z,10.80
2023-02-16T08:27:38.467Z,10.80
2023-02-16T08:30:05.012Z,10.90
2023-02-16T08:32:31.573Z,10.90
2023-02-16T08:34:58.104Z,10.90
2023-02-16T08:37:24.608Z,11.00
2023-02-16T08:39:51.083Z,10.90
2023-02-16T08:42:17.575Z,10.90
2023-02-16T08:44:44.096Z,10.90
2023-02-16T08:47:10.597Z,11.00
2023-02-16T08:49:38.782Z,10.90
2023-02-16T08:52:08.854Z,10.90
2023-02-16T08:54:35.333Z,11.00
2023-02-16T08:57:01.839Z,10.90
2023-02-16T08:59:29.043Z,10.90
2023-02-16T09:01:55.632Z,11.00
2023-02-16T09:04:22.098Z,11.00
2023-02-16T09:06:48.591Z,10.90
2023-02-16T09:09:15.060Z,10.90
2023-02-16T09:11:41.548Z,10.90
2023-02-16T09:14:08.804Z,10.90
2023-02-16T09:16:35.321Z,11.00
2023-02-16T09:19:01.858Z,11.00
2023-02-16T09:21:28.344Z,11.00
2023-02-16T09:23:54.835Z,11.00
2023-02-16T09:26:21.325Z,11.00
2023-02-16T09:28:47.811Z,11.00
2023-02-16T09:31:14.391Z,11.00
2023-02-16T09:33:40.940Z,11.00
2023-02-16T09:36:07.445Z,11.00
2023-02-16T09:38:33.912Z,11.00
2023-02-16T09:41:00.420Z,11.00
2023-02-16T09:43:26.902Z,11.00
2023-02-16T09:45:53.424Z,11.00
2023-02-16T09:48:19.942Z,11.00
2023-02-16T09:50:53.819Z,11.00
2023-02-16T09:53:21.107Z,11.00
2023-02-16T09:55:47.615Z,11.00
2023-02-16T09:58:14.090Z,11.00
2023-02-16T10:00:40.601Z,11.00
2023-02-16T10:03:07.091Z,11.00
2023-02-16T10:05:36.363Z,11.00
2023-02-16T10:08:02.852Z,11.10
2023-02-16T10:10:29.334Z,11.10
2023-02-16T10:12:56.904Z,11.10
2023-02-16T10:15:23.389Z,11.10
2023-02-16T10:17:49.878Z,11.00
2023-02-16T10:20:16.367Z,11.00
2023-02-16T10:22:42.835Z,11.10
2023-02-16T10:25:09.300Z,11.00
2023-02-16T10:27:35.788Z,11.00
2023-02-16T10:30:02.293Z,11.00
2023-02-16T10:32:28.810Z,11.00
2023-02-16T10:34:55.263Z,11.00
2023-02-16T10:37:21.768Z,11.10
2023-02-16T10:39:48.246Z,11.00
2023-02-16T10:42:14.723Z,11.00
2023-02-16T10:44:41.231Z,11.10
2023-02-16T10:47:08.917Z,11.00
2023-02-16T10:49:35.377Z,11.00
2023-02-16T10:52:01.885Z,11.10
2023-02-16T10:54:28.372Z,11.10
2023-02-16T10:56:54.857Z,11.10
2023-02-16T10:59:21.335Z,11.00
2023-02-16T11:01:47.888Z,11.00
2023-02-16T11:04:14.393Z,11.00
2023-02-16T11:06:40.887Z,11.10
2023-02-16T11:09:07.381Z,11.10
2023-02-16T11:11:33.865Z,11.10
2023-02-16T11:14:00.336Z,11.10
2023-02-16T11:16:26.800Z,11.10
2023-02-16T11:18:53.299Z,11.10
2023-02-16T11:21:19.778Z,11.00
2023-02-16T11:23:46.269Z,11.10
2023-02-16T11:26:12.709Z,11.10
2023-02-16T11:28:39.200Z,11.10
2023-02-16T11:31:06.060Z,11.10
2023-02-16T11:33:32.739Z,11.10
2023-02-16T11:35:59.236Z,11.10
2023-02-16T11:38:25.714Z,11.10
2023-02-16T11:40:52.188Z,11.10
2023-02-16T11:43:18.685Z,11.10
2023-02-16T11:45:45.169Z,11.10
2023-02-16T11:48:11.643Z,11.10
2023-02-16T11:50:38.106Z,11.10
2023-02-16T11:53:04.585Z,11.10
2023-02-16T11:55:31.049Z,11.10
2023-02-16T11:57:57.524Z,11.10
2023-02-16T12:00:23.994Z,11.10
2023-02-16T12:02:50.495Z,11.10
2023-02-16T12:05:17.065Z,11.10
2023-02-16T12:07:43.589Z,11.10
2023-02-16T12:10:10.059Z,11.10
2023-02-16T12:12:36.549Z,11.10
2023-02-16T12:15:03.033Z,11.10
2023-02-16T12:17:29.510Z,11.10
2023-02-16T12:19:55.991Z,11.10
2023-02-16T12:22:22.460Z,11.10
2023-02-16T12:24:51.019Z,11.10
2023-02-16T12:27:17.488Z,11.10
2023-02-16T12:29:45.029Z,11.10
2023-02-16T12:32:11.497Z,11.10
2023-02-16T12:34:37.997Z,11.10
2023-02-16T12:37:04.464Z,11.10
2023-02-16T12:39:30.988Z,11.10
2023-02-16T12:41:57.564Z,11.10
2023-02-16T12:44:24.040Z,11.10
2023-02-16T12:46:50.506Z,11.10
2023-02-16T12:49:16.986Z,11.20
2023-02-16T12:51:43.454Z,11.10
2023-02-16T12:54:09.938Z,11.10
2023-02-16T12:56:36.423Z,11.10
2023-02-16T12:59:02.894Z,11.10
2023-02-16T13:01:29.633Z,11.10
2023-02-16T13:03:56.212Z,11.10
2023-02-16T13:06:22.690Z,11.10
2023-02-16T13:08:49.202Z,11.20
2023-02-16T13:11:15.757Z,11.10
2023-02-16T13:13:42.261Z,11.10
2023-02-16T13:16:17.529Z,11.10
2023-02-16T13:18:54.119Z,11.10
2023-02-16T13:21:20.605Z,11.20
2023-02-16T13:23:47.087Z,11.10
2023-02-16T13:26:13.675Z,11.10
2023-02-16T13:28:40.357Z,11.20
2023-02-16T13:31:06.984Z,11.20
2023-02-16T13:33:33.526Z,11.10
2023-02-16T13:35:59.995Z,11.20
2023-02-16T13:38:26.503Z,11.10
2023-02-16T13:40:52.988Z,11.10
2023-02-16T13:43:19.452Z,11.10
2023-02-16T13:45:45.968Z,11.10
2023-02-16T13:48:12.482Z,11.10
2023-02-16T13:50:38.932Z,11.20
2023-02-16T13:53:05.526Z,11.10
2023-02-16T13:55:32.013Z,11.20
2023-02-16T13:57:58.504Z,11.20
2023-02-16T14:00:25.035Z,11.20
2023-02-16T14:02:51.525Z,11.20
2023-02-16T14:05:18.032Z,11.20
2023-02-16T14:07:44.497Z,11.20
2023-02-16T14:10:11.034Z,11.10
2023-02-16T14:12:37.565Z,11.20
2023-02-16T14:15:04.075Z,11.20
2023-02-16T14:17:30.563Z,11.20
2023-02-16T14:19:57.064Z,11.20
2023-02-16T14:22:23.535Z,11.20
2023-02-16T14:24:49.997Z,11.20
2023-02-16T14:27:16.454Z,11.20
2023-02-16T14:29:42.932Z,11.20
2023-02-16T14:32:09.487Z,11.20
2023-02-16T14:34:35.985Z,11.20
2023-02-16T14:37:02.470Z,11.20
2023-02-16T14:39:28.957Z,11.20
2023-02-16T14:41:55.426Z,11.20
2023-02-16T14:44:21.885Z,11.20
2023-02-16T14:46:48.388Z,11.20
2023-02-16T14:49:14.863Z,11.20
2023-02-16T14:51:41.446Z,11.20
2023-02-16T14:54:07.931Z,11.20
2023-02-16T14:56:34.576Z,11.20
2023-02-16T14:59:01.052Z,11.20
2023-02-16T15:01:27.571Z,11.20
2023-02-16T15:03:54.101Z,11.20
2023-02-16T15:06:21.143Z,11.20
2023-02-16T15:08:48.876Z,11.20
2023-02-16T15:11:15.466Z,11.20
2023-02-16T15:13:41.936Z,11.30
2023-02-16T15:16:08.701Z,11.20
2023-02-16T15:18:35.357Z,11.20
2023-02-16T15:21:01.850Z,11.20
2023-02-16T15:23:28.318Z,11.30
2023-02-16T15:25:54.823Z,11.20
2023-02-16T15:28:21.297Z,11.20
2023-02-16T15:30:47.898Z,11.20
2023-02-16T15:33:14.438Z,11.20
2023-02-16T15:35:40.907Z,11.20
2023-02-16T15:38:07.361Z,11.30
2023-02-16T15:40:33.827Z,11.20
2023-02-16T15:43:00.302Z,11.30
2023-02-16T15:45:26.848Z,11.30
2023-02-16T15:47:53.317Z,11.30
2023-02-16T15:50:19.791Z,11.30
2023-02-16T15:52:46.249Z,11.30
2023-02-16T15:55:12.744Z,11.30
2023-02-16T15:57:39.241Z,11.30
2023-02-16T16:00:05.716Z,11.30
2023-02-16T16:02:32.190Z,11.30
2023-02-16T16:04:58.726Z,11.30
2023-02-16T16:07:25.242Z,11.30
2023-02-16T16:09:51.715Z,11.30
2023-02-16T16:12:18.191Z,11.30
2023-02-16T16:14:44.657Z,11.30
2023-02-16T16:17:11.138Z,11.30
2023-02-16T16:19:37.618Z,11.30
2023-02-16T16:22:09.203Z,11.30
2023-02-16T16:24:35.670Z,11.30
2023-02-16T16:27:02.128Z,11.30
2023-02-16T16:29:28.593Z,11.30
2023-02-16T16:31:55.114Z,11.30
2023-02-16T16:34:21.648Z,11.30
2023-02-16T16:36:48.117Z,11.30
2023-02-16T16:39:15.179Z,11.30
2023-02-16T16:41:41.675Z,11.30
2023-02-16T16:44:08.108Z,11.30
2023-02-16T16:46:34.621Z,11.30
2023-02-16T16:49:01.094Z,11.30
2023-02-16T16:51:27.601Z,11.30
2023-02-16T16:53:54.123Z,11.30
2023-02-16T16:56:20.658Z,11.20
2023-02-16T16:58:47.168Z,11.30
2023-02-16T17:01:13.650Z,11.30
2023-02-16T17:03:40.117Z,11.30
2023-02-16T17:06:06.786Z,11.30
2023-02-16T17:08:33.412Z,11.30
2023-02-16T17:10:59.929Z,11.30
2023-02-16T17:13:26.433Z,11.30
2023-02-16T17:15:52.915Z,11.30
2023-02-16T17:18:19.414Z,11.30
2023-02-16T17:20:45.925Z,11.30
2023-02-16T17:23:12.371Z,11.30
2023-02-16T17:25:38.879Z,11.30
2023-02-16T17:28:05.347Z,11.30
2023-02-16T17:30:31.861Z,11.30
2023-02-16T17:32:58.367Z,11.30
2023-02-16T17:35:24.867Z,11.30
2023-02-16T17:37:51.344Z,11.30
2023-02-16T17:40:17.809Z,11.30
2023-02-16T17:42:44.272Z,11.30
2023-02-16T17:45:10.742Z,11.30
2023-02-16T17:47:37.212Z,11.30
2023-02-16T17:50:03.685Z,11.30
2023-02-16T17:52:30.166Z,11.30
2023-02-16T17:54:56.642Z,11.30
2023-02-16T17:57:23.106Z,11.30
2023-02-16T17:59:49.584Z,11.30
2023-02-16T18:02:16.069Z,11.30
2023-02-16T18:04:45.287Z,11.30
2023-02-16T18:07:11.786Z,11.30
2023-02-16T18:09:38.246Z,11.30
2023-02-16T18:12:04.727Z,11.30
2023-02-16T18:14:31.187Z,11.30
2023-02-16T18:16:57.731Z,11.30
2023-02-16T18:19:24.205Z,11.30
2023-02-16T18:21:50.682Z,11.30
2023-02-16T18:24:17.165Z,11.30
2023-02-16T18:26:43.667Z,11.30
2023-02-16T18:29:10.153Z,11.30
2023-02-16T18:31:36.696Z,11.30
2023-02-16T18:34:03.240Z,11.30
2023-02-16T18:36:29.720Z,11.30
2023-02-16T18:38:57.261Z,11.30
2023-02-16T18:41:23.764Z,11.30
2023-02-16T18:43:50.232Z,11.30
2023-02-16T18:46:16.777Z,11.30
2023-02-16T18:48:43.324Z,11.30
2023-02-16T18:51:09.854Z,11.30
2023-02-16T18:53:36.343Z,11.30
2023-02-16T18:56:03.043Z,11.30
2023-02-16T18:58:29.799Z,11.30
2023-02-16T19:00:56.351Z,11.30
2023-02-16T19:03:22.900Z,11.30
2023-02-16T19:05:49.402Z,11.30
2023-02-16T19:08:15.859Z,11.40
2023-02-16T19:10:42.347Z,11.30
2023-02-16T19:13:08.822Z,11.30
2023-02-16T19:15:35.343Z,11.30
2023-02-16T19:18:01.835Z,11.30
2023-02-16T19:20:28.331Z,11.30
2023-02-16T19:22:54.818Z,11.30
2023-02-16T19:25:21.297Z,11.40
2023-02-16T19:27:47.760Z,11.30
2023-02-16T19:30:14.304Z,11.30
2023-02-16T19:32:40.789Z,11.30
2023-02-16T19:35:07.262Z,11.30
2023-02-16T19:37:33.736Z,11.30
2023-02-16T19:40:00.304Z,11.40
2023-02-16T19:42:26.820Z,11.30
2023-02-16T19:44:53.289Z,11.30
2023-02-16T19:47:19.750Z,11.30
2023-02-16T19:49:46.234Z,11.30
2023-02-16T19:52:12.717Z,11.30
2023-02-16T19:54:39.170Z,11.30
2023-02-16T19:57:05.699Z,11.30
2023-02-16T19:59:32.163Z,11.30
2023-02-16T20:01:58.629Z,11.30
2023-02-16T20:04:25.130Z,11.30
2023-02-16T20:06:51.605Z,11.30
2023-02-16T20:09:18.039Z,11.40
2023-02-16T20:11:44.512Z,11.30
2023-02-16T20:14:10.986Z,11.30
2023-02-16T20:16:37.489Z,11.30
2023-02-16T20:19:03.967Z,11.30
2023-02-16T20:21:30.437Z,11.30
2023-02-16T20:23:56.914Z,11.30
2023-02-16T20:26:23.404Z,11.30
2023-02-16T20:28:49.882Z,11.30
2023-02-16T20:31:16.406Z,11.30
2023-02-16T20:33:42.913Z,11.40
2023-02-16T20:36:09.400Z,11.30
2023-02-16T20:38:35.889Z,11.30
2023-02-16T20:41:02.390Z,11.40
2023-02-16T20:43:33.567Z,11.30
2023-02-16T20:46:00.058Z,11.30
2023-02-16T20:48:26.553Z,11.30
2023-02-16T20:50:53.023Z,11.30
2023-02-16T20:53:19.524Z,11.30
2023-02-16T20:55:45.995Z,11.40
2023-02-16T20:58:12.490Z,11.30
2023-02-16T21:00:38.981Z,11.30
2023-02-16T21:03:05.493Z,11.30
2023-02-16T21:05:31.975Z,11.30
2023-02-16T21:07:58.464Z,11.30
2023-02-16T21:10:24.946Z,11.30
2023-02-16T21:12:51.424Z,11.30
2023-02-16T21:15:17.900Z,11.30
2023-02-16T21:17:44.408Z,11.30
2023-02-16T21:20:10.898Z,11.30
2023-02-16T21:22:37.403Z,11.30
2023-02-16T21:25:03.860Z,11.30
2023-02-16T21:27:30.380Z,11.30
2023-02-16T21:29:56.856Z,11.30
2023-02-16T21:32:23.360Z,11.30
2023-02-16T21:34:49.836Z,11.30
2023-02-16T21:37:16.332Z,11.30
2023-02-16T21:39:42.788Z,11.30
2023-02-16T21:42:09.266Z,11.30
2023-02-16T21:44:35.733Z,11.30
2023-02-16T21:47:02.231Z,11.30
2023-02-16T21:49:28.704Z,11.30
2023-02-16T21:51:55.193Z,11.30
2023-02-16T21:54:21.671Z,11.30
2023-02-16T21:56:48.172Z,11.30
2023-02-16T21:59:14.653Z,11.30
2023-02-16T22:01:41.147Z,11.30
2023-02-16T22:04:07.662Z,11.30
2023-02-16T22:06:34.201Z,11.30
2023-02-16T22:09:00.661Z,11.30
2023-02-16T22:11:27.119Z,11.30
2023-02-16T22:13:53.602Z,11.30
2023-02-16T22:16:20.151Z,11.30
2023-02-16T22:18:46.671Z,11.30
2023-02-16T22:21:13.147Z,11.30
2023-02-16T22:23:39.655Z,11.30
2023-02-16T22:26:06.498Z,11.30
2023-02-16T22:28:33.499Z,11.40
2023-02-16T22:31:02.887Z,11.30
2023-02-16T22:33:29.387Z,11.30
2023-02-16T22:35:55.855Z,11.30
2023-02-16T22:38:22.330Z,11.30
2023-02-16T22:40:48.808Z,11.30
2023-02-16T22:43:15.306Z,11.30
2023-02-16T22:45:41.861Z,11.30
2023-02-16T22:48:08.408Z,11.40
2023-02-16T22:50:34.887Z,11.30
2023-02-16T22:53:01.553Z,11.30
2023-02-16T22:55:28.026Z,11.40
2023-02-16T22:57:54.536Z,11.40
2023-02-16T23:00:21.019Z,11.30
2023-02-16T23:02:47.504Z,11.30
2023-02-16T23:05:13.976Z,11.30
2023-02-16T23:07:40.470Z,11.30
2023-02-16T23:10:06.940Z,11.30
2023-02-16T23:12:33.433Z,11.30
2023-02-16T23:14:59.922Z,11.40
2023-02-16T23:17:26.431Z,11.40
2023-02-16T23:19:52.901Z,11.30
2023-02-16T23:22:19.380Z,11.30
2023-02-16T23:24:45.861Z,11.30
2023-02-16T23:27:12.345Z,11.40
2023-02-16T23:29:38.879Z,11.40
2023-02-16T23:32:05.340Z,11.40
2023-02-16T23:34:31.803Z,11.30
2023-02-16T23:36:58.276Z,11.30
2023-02-16T23:39:24.750Z,11.40
2023-02-16T23:41:51.214Z,11.30
2023-02-16T23:44:21.590Z,11.30
2023-02-16T23:46:48.073Z,11.30
2023-02-16T23:49:14.553Z,11.30
2023-02-16T23:51:41.019Z,11.30
2023-02-16T23:54:07.511Z,11.30
2023-02-16T23:56:33.990Z,11.30
2023-02-16T23:59:00.522Z,11.30
